Terminal Aerodrome Forecast
Issued by NWS Pocatello, ID

Home | Current Version | Previous Version | Text Only | Print | Product List | Glossary On
Versions: 1 2 3 4 5 6 7 8 9 10 11 12 13 14 15 16 17 18 19 20 21 22 23 24
000
FTUS45 KPIH 230500
TAFIDA
TAF
KIDA 230520Z 2306/2406 03006KT P6SM BKN035 BKN180
     FM230900 VRB05KT 4SM BR VCSH BKN025 OVC060
     FM231300 21006KT P6SM -SHRA BKN015 OVC035
     FM231700 21006KT P6SM VCTS SCT015 BKN040CB BKN110
     FM232200 36008KT P6SM -SHRA VCTS BKN015 OVC035CB=

USA.gov is the U.S. government's official web portal to all federal, state and local government web resources and services.